Time,TemperatureF,DewpointF,PressureIn,WindDirection,WindDirectionDegrees,WindSpeedMPH,WindSpeedGustMPH,Humidity,HourlyPrecipIn,Conditions,Clouds,dailyrainin,SoftwareType,DateUTC
2013-01-12 00:01:00,31.6,16.0,30.15,NE,45,3.0,-999.0,52,0.00,,,0.00,Wunderground v.1.15,2013-01-12 08:01:00,
2013-01-12 00:06:00,31.6,16.0,30.15,NE,45,3.0,-999.0,52,0.00,,,0.00,Wunderground v.1.15,2013-01-12 08:06:00,
2013-01-12 00:11:00,31.6,16.0,30.15,NE,45,3.0,-999.0,52,0.00,,,0.00,Wunderground v.1.15,2013-01-12 08:11:00,
2013-01-12 00:16:00,31.6,16.0,30.15,NE,45,3.0,-999.0,52,0.00,,,0.00,Wunderground v.1.15,2013-01-12 08:16:00,
2013-01-12 00:21:00,31.6,16.0,30.15,NE,45,3.0,-999.0,52,0.00,,,0.00,Wunderground v.1.15,2013-01-12 08:21:00,
2013-01-12 00:26:00,31.6,16.0,30.15,NE,45,3.0,-999.0,52,0.00,,,0.00,Wunderground v.1.15,2013-01-12 08:26:00,
2013-01-12 00:31:00,31.6,16.0,30.15,NE,45,3.0,-999.0,52,0.00,,,0.00,Wunderground v.1.15,2013-01-12 08:31:00,
2013-01-12 00:36:00,31.6,16.0,30.15,NE,45,3.0,-999.0,52,0.00,,,0.00,Wunderground v.1.15,2013-01-12 08:36:00,
2013-01-12 00:41:00,31.6,16.0,30.15,NE,45,3.0,-999.0,52,0.00,,,0.00,Wunderground v.1.15,2013-01-12 08:41:00,
2013-01-12 00:46:00,31.2,15.2,30.16,NE,45,3.0,-999.0,51,0.00,,,0.00,Wunderground v.1.15,2013-01-12 08:46:00,
2013-01-12 00:51:00,31.2,15.2,30.16,NE,45,3.0,-999.0,51,0.00,,,0.00,Wunderground v.1.15,2013-01-12 08:51:00,
2013-01-12 00:56:00,31.2,15.2,30.16,NE,45,3.0,-999.0,51,0.00,,,0.00,Wunderground v.1.15,2013-01-12 08:56:00,
2013-01-12 01:01:00,31.2,15.2,30.16,NE,45,3.0,-999.0,51,0.00,,,0.00,Wunderground v.1.15,2013-01-12 09:01:00,
2013-01-12 01:06:00,31.2,15.2,30.16,NE,45,3.0,-999.0,51,0.00,,,0.00,Wunderground v.1.15,2013-01-12 09:06:00,
2013-01-12 01:11:00,31.2,15.2,30.16,NE,45,3.0,-999.0,51,0.00,,,0.00,Wunderground v.1.15,2013-01-12 09:11:00,
2013-01-12 01:16:00,31.1,14.1,30.16,NE,45,3.0,-999.0,49,0.00,,,0.00,Wunderground v.1.15,2013-01-12 09:16:00,
2013-01-12 01:21:00,31.1,14.1,30.16,NE,45,3.0,-999.0,49,0.00,,,0.00,Wunderground v.1.15,2013-01-12 09:21:00,
2013-01-12 01:26:00,31.1,14.1,30.16,NE,45,3.0,-999.0,49,0.00,,,0.00,Wunderground v.1.15,2013-01-12 09:26:00,
2013-01-12 01:31:00,31.1,14.1,30.16,NE,45,3.0,-999.0,49,0.00,,,0.00,Wunderground v.1.15,2013-01-12 09:31:00,
2013-01-12 01:36:00,31.1,14.1,30.16,NE,45,3.0,-999.0,49,0.00,,,0.00,Wunderground v.1.15,2013-01-12 09:36:00,
2013-01-12 01:41:00,31.1,14.1,30.16,NE,45,3.0,-999.0,49,0.00,,,0.00,Wunderground v.1.15,2013-01-12 09:41:00,
2013-01-12 01:46:00,30.9,14.4,30.16,ENE,68,3.0,-999.0,50,0.00,,,0.00,Wunderground v.1.15,2013-01-12 09:46:00,
2013-01-12 01:51:00,30.9,14.4,30.16,ENE,68,3.0,-999.0,50,0.00,,,0.00,Wunderground v.1.15,2013-01-12 09:51:00,
2013-01-12 01:56:00,30.9,14.4,30.16,ENE,68,3.0,-999.0,50,0.00,,,0.00,Wunderground v.1.15,2013-01-12 09:56:00,
2013-01-12 02:01:00,30.9,14.4,30.16,ENE,68,3.0,-999.0,50,0.00,,,0.00,Wunderground v.1.15,2013-01-12 10:01:00,
2013-01-12 02:06:00,30.9,14.4,30.16,ENE,68,3.0,-999.0,50,0.00,,,0.00,Wunderground v.1.15,2013-01-12 10:06:00,
2013-01-12 02:11:00,30.9,14.4,30.16,ENE,68,3.0,-999.0,50,0.00,,,0.00,Wunderground v.1.15,2013-01-12 10:11:00,
2013-01-12 02:16:00,30.8,13.4,30.16,NE,45,4.0,-999.0,48,0.00,,,0.00,Wunderground v.1.15,2013-01-12 10:16:00,
2013-01-12 02:21:00,30.8,13.4,30.16,NE,45,4.0,-999.0,48,0.00,,,0.00,Wunderground v.1.15,2013-01-12 10:21:00,
2013-01-12 02:26:00,30.8,13.4,30.16,NE,45,4.0,-999.0,48,0.00,,,0.00,Wunderground v.1.15,2013-01-12 10:26:00,
2013-01-12 02:31:00,30.8,13.4,30.16,NE,45,4.0,-999.0,48,0.00,,,0.00,Wunderground v.1.15,2013-01-12 10:31:00,
2013-01-12 02:36:00,30.8,13.4,30.16,NE,45,4.0,-999.0,48,0.00,,,0.00,Wunderground v.1.15,2013-01-12 10:36:00,
2013-01-12 02:41:00,30.8,13.4,30.16,NE,45,4.0,-999.0,48,0.00,,,0.00,Wunderground v.1.15,2013-01-12 10:41:00,
2013-01-12 02:46:00,31.0,12.6,30.17,NE,45,2.0,-999.0,46,0.00,,,0.00,Wunderground v.1.15,2013-01-12 10:46:00,
2013-01-12 02:51:00,31.0,12.6,30.17,NE,45,2.0,-999.0,46,0.00,,,0.00,Wunderground v.1.15,2013-01-12 10:51:00,
2013-01-12 02:56:00,31.0,12.6,30.17,NE,45,2.0,-999.0,46,0.00,,,0.00,Wunderground v.1.15,2013-01-12 10:56:00,
2013-01-12 03:01:00,31.0,12.6,30.17,NE,45,2.0,-999.0,46,0.00,,,0.00,Wunderground v.1.15,2013-01-12 11:01:00,
2013-01-12 03:06:00,31.0,12.6,30.17,NE,45,2.0,-999.0,46,0.00,,,0.00,Wunderground v.1.15,2013-01-12 11:06:00,
2013-01-12 03:11:00,31.0,12.6,30.17,NE,45,2.0,-999.0,46,0.00,,,0.00,Wunderground v.1.15,2013-01-12 11:11:00,
2013-01-12 03:16:00,30.0,12.2,30.16,NNW,338,0.0,-999.0,47,0.00,,,0.00,Wunderground v.1.15,2013-01-12 11:16:00,
2013-01-12 03:21:00,30.0,12.2,30.16,NNW,338,0.0,-999.0,47,0.00,,,0.00,Wunderground v.1.15,2013-01-12 11:21:00,
2013-01-12 03:26:00,30.0,12.2,30.16,NNW,338,0.0,-999.0,47,0.00,,,0.00,Wunderground v.1.15,2013-01-12 11:26:00,
2013-01-12 03:31:00,30.0,12.2,30.16,NNW,338,0.0,-999.0,47,0.00,,,0.00,Wunderground v.1.15,2013-01-12 11:31:00,
2013-01-12 03:36:00,30.0,12.2,30.16,NNW,338,0.0,-999.0,47,0.00,,,0.00,Wunderground v.1.15,2013-01-12 11:36:00,
2013-01-12 03:41:00,30.0,12.2,30.16,NNW,338,0.0,-999.0,47,0.00,,,0.00,Wunderground v.1.15,2013-01-12 11:41:00,
2013-01-12 03:46:00,28.3,13.8,30.17,East,90,0.0,-999.0,54,0.00,,,0.00,Wunderground v.1.15,2013-01-12 11:46:00,
2013-01-12 03:51:00,28.3,13.8,30.17,East,90,0.0,-999.0,54,0.00,,,0.00,Wunderground v.1.15,2013-01-12 11:51:00,
2013-01-12 03:56:00,28.3,13.8,30.17,East,90,0.0,-999.0,54,0.00,,,0.00,Wunderground v.1.15,2013-01-12 11:56:00,
2013-01-12 04:01:00,28.3,13.8,30.17,East,90,0.0,-999.0,54,0.00,,,0.00,Wunderground v.1.15,2013-01-12 12:01:00,
2013-01-12 04:06:00,28.3,13.8,30.17,East,90,0.0,-999.0,54,0.00,,,0.00,Wunderground v.1.15,2013-01-12 12:06:00,
2013-01-12 04:11:00,28.3,13.8,30.17,East,90,0.0,-999.0,54,0.00,,,0.00,Wunderground v.1.15,2013-01-12 12:11:00,
2013-01-12 04:16:00,28.0,14.7,30.16,East,90,1.0,-999.0,57,0.00,,,0.00,Wunderground v.1.15,2013-01-12 12:16:00,
2013-01-12 04:21:00,28.0,14.7,30.16,East,90,1.0,-999.0,57,0.00,,,0.00,Wunderground v.1.15,2013-01-12 12:21:00,
2013-01-12 04:26:00,28.0,14.7,30.16,East,90,1.0,-999.0,57,0.00,,,0.00,Wunderground v.1.15,2013-01-12 12:26:00,
2013-01-12 04:31:00,28.0,14.7,30.16,East,90,1.0,-999.0,57,0.00,,,0.00,Wunderground v.1.15,2013-01-12 12:31:00,
2013-01-12 04:36:00,28.0,14.7,30.16,East,90,1.0,-999.0,57,0.00,,,0.00,Wunderground v.1.15,2013-01-12 12:36:00,
2013-01-12 04:41:00,28.0,14.7,30.16,East,90,1.0,-999.0,57,0.00,,,0.00,Wunderground v.1.15,2013-01-12 12:41:00,
2013-01-12 04:46:00,27.4,14.5,30.17,East,90,1.0,-999.0,58,0.00,,,0.00,Wunderground v.1.15,2013-01-12 12:46:00,
2013-01-12 04:51:00,27.4,14.5,30.17,East,90,1.0,-999.0,58,0.00,,,0.00,Wunderground v.1.15,2013-01-12 12:51:00,
2013-01-12 04:56:00,27.4,14.5,30.17,East,90,1.0,-999.0,58,0.00,,,0.00,Wunderground v.1.15,2013-01-12 12:56:00,
2013-01-12 05:01:00,27.4,14.5,30.17,East,90,1.0,-999.0,58,0.00,,,0.00,Wunderground v.1.15,2013-01-12 13:01:00,
2013-01-12 05:06:00,27.4,14.5,30.17,East,90,1.0,-999.0,58,0.00,,,0.00,Wunderground v.1.15,2013-01-12 13:06:00,
2013-01-12 05:11:00,27.4,14.5,30.17,East,90,1.0,-999.0,58,0.00,,,0.00,Wunderground v.1.15,2013-01-12 13:11:00,
2013-01-12 05:16:00,27.4,14.5,30.16,East,90,2.0,-999.0,58,0.00,,,0.00,Wunderground v.1.15,2013-01-12 13:16:00,
2013-01-12 05:21:00,27.4,14.5,30.16,East,90,2.0,-999.0,58,0.00,,,0.00,Wunderground v.1.15,2013-01-12 13:21:00,
2013-01-12 05:26:00,27.4,14.5,30.16,East,90,2.0,-999.0,58,0.00,,,0.00,Wunderground v.1.15,2013-01-12 13:26:00,
2013-01-12 05:31:00,27.4,14.5,30.16,East,90,2.0,-999.0,58,0.00,,,0.00,Wunderground v.1.15,2013-01-12 13:31:00,
2013-01-12 05:36:00,27.4,14.5,30.16,East,90,2.0,-999.0,58,0.00,,,0.00,Wunderground v.1.15,2013-01-12 13:36:00,
2013-01-12 05:41:00,27.4,14.5,30.16,East,90,2.0,-999.0,58,0.00,,,0.00,Wunderground v.1.15,2013-01-12 13:41:00,
2013-01-12 05:46:00,27.3,14.5,30.18,ENE,68,2.0,-999.0,58,0.00,,,0.00,Wunderground v.1.15,2013-01-12 13:46:00,
2013-01-12 05:51:00,27.3,14.5,30.18,ENE,68,2.0,-999.0,58,0.00,,,0.00,Wunderground v.1.15,2013-01-12 13:51:00,
2013-01-12 05:56:00,27.3,14.5,30.18,ENE,68,2.0,-999.0,58,0.00,,,0.00,Wunderground v.1.15,2013-01-12 13:56:00,
2013-01-12 06:01:00,27.3,14.5,30.18,ENE,68,2.0,-999.0,58,0.00,,,0.00,Wunderground v.1.15,2013-01-12 14:01:00,
2013-01-12 06:06:00,27.3,14.5,30.18,ENE,68,2.0,-999.0,58,0.00,,,0.00,Wunderground v.1.15,2013-01-12 14:06:00,
2013-01-12 06:11:00,27.3,14.5,30.18,ENE,68,2.0,-999.0,58,0.00,,,0.00,Wunderground v.1.15,2013-01-12 14:11:00,
2013-01-12 06:16:00,27.1,14.3,30.19,East,90,1.0,-999.0,58,0.00,,,0.00,Wunderground v.1.15,2013-01-12 14:16:00,
2013-01-12 06:21:00,27.1,14.3,30.19,East,90,1.0,-999.0,58,0.00,,,0.00,Wunderground v.1.15,2013-01-12 14:21:00,
2013-01-12 06:26:00,27.1,14.3,30.19,East,90,1.0,-999.0,58,0.00,,,0.00,Wunderground v.1.15,2013-01-12 14:26:00,
2013-01-12 06:31:00,27.1,14.3,30.19,East,90,1.0,-999.0,58,0.00,,,0.00,Wunderground v.1.15,2013-01-12 14:31:00,
2013-01-12 06:36:00,27.1,14.3,30.19,East,90,1.0,-999.0,58,0.00,,,0.00,Wunderground v.1.15,2013-01-12 14:36:00,
2013-01-12 06:41:00,27.1,14.3,30.19,East,90,1.0,-999.0,58,0.00,,,0.00,Wunderground v.1.15,2013-01-12 14:41:00,
2013-01-12 06:46:00,26.5,14.1,30.20,East,90,2.0,-999.0,59,0.00,,,0.00,Wunderground v.1.15,2013-01-12 14:46:00,
2013-01-12 06:51:00,26.5,14.1,30.20,East,90,2.0,-999.0,59,0.00,,,0.00,Wunderground v.1.15,2013-01-12 14:51:00,
2013-01-12 06:56:00,26.5,14.1,30.20,East,90,2.0,-999.0,59,0.00,,,0.00,Wunderground v.1.15,2013-01-12 14:56:00,
2013-01-12 07:01:00,26.5,14.1,30.20,East,90,2.0,-999.0,59,0.00,,,0.00,Wunderground v.1.15,2013-01-12 15:01:00,
2013-01-12 07:06:00,26.5,14.1,30.20,East,90,2.0,-999.0,59,0.00,,,0.00,Wunderground v.1.15,2013-01-12 15:06:00,
2013-01-12 07:11:00,26.5,14.1,30.20,East,90,2.0,-999.0,59,0.00,,,0.00,Wunderground v.1.15,2013-01-12 15:11:00,
2013-01-12 07:16:00,26.1,14.5,30.20,ENE,68,2.0,-999.0,61,0.00,,,0.00,Wunderground v.1.15,2013-01-12 15:16:00,
2013-01-12 07:21:00,26.1,14.5,30.20,ENE,68,2.0,-999.0,61,0.00,,,0.00,Wunderground v.1.15,2013-01-12 15:21:00,
2013-01-12 07:26:00,26.1,14.5,30.20,ENE,68,2.0,-999.0,61,0.00,,,0.00,Wunderground v.1.15,2013-01-12 15:26:00,
2013-01-12 07:31:00,26.1,14.5,30.20,ENE,68,2.0,-999.0,61,0.00,,,0.00,Wunderground v.1.15,2013-01-12 15:31:00,
2013-01-12 07:36:00,26.1,14.5,30.20,ENE,68,2.0,-999.0,61,0.00,,,0.00,Wunderground v.1.15,2013-01-12 15:36:00,
2013-01-12 07:41:00,26.1,14.5,30.20,ENE,68,2.0,-999.0,61,0.00,,,0.00,Wunderground v.1.15,2013-01-12 15:41:00,
2013-01-12 07:46:00,26.7,15.0,30.21,ENE,68,2.0,-999.0,61,0.00,,,0.00,Wunderground v.1.15,2013-01-12 15:46:00,
2013-01-12 07:51:00,26.7,15.0,30.21,ENE,68,2.0,-999.0,61,0.00,,,0.00,Wunderground v.1.15,2013-01-12 15:51:00,
2013-01-12 07:56:00,26.7,15.0,30.21,ENE,68,2.0,-999.0,61,0.00,,,0.00,Wunderground v.1.15,2013-01-12 15:56:00,
2013-01-12 08:01:00,26.7,15.0,30.21,ENE,68,2.0,-999.0,61,0.00,,,0.00,Wunderground v.1.15,2013-01-12 16:01:00,
2013-01-12 08:06:00,26.7,15.0,30.21,ENE,68,2.0,-999.0,61,0.00,,,0.00,Wunderground v.1.15,2013-01-12 16:06:00,
2013-01-12 08:11:00,26.7,15.0,30.21,ENE,68,2.0,-999.0,61,0.00,,,0.00,Wunderground v.1.15,2013-01-12 16:11:00,
2013-01-12 08:16:00,28.5,15.2,30.21,East,90,2.0,-999.0,57,0.00,,,0.00,Wunderground v.1.15,2013-01-12 16:16:00,
2013-01-12 08:21:00,28.5,15.2,30.21,East,90,2.0,-999.0,57,0.00,,,0.00,Wunderground v.1.15,2013-01-12 16:21:00,
2013-01-12 08:26:00,28.5,15.2,30.21,East,90,2.0,-999.0,57,0.00,,,0.00,Wunderground v.1.15,2013-01-12 16:26:00,
2013-01-12 08:31:00,28.5,15.2,30.21,East,90,2.0,-999.0,57,0.00,,,0.00,Wunderground v.1.15,2013-01-12 16:31:00,
2013-01-12 08:41:00,28.5,15.2,30.21,East,90,2.0,-999.0,57,0.00,,,0.00,Wunderground v.1.15,2013-01-12 16:41:00,
2013-01-12 08:46:00,30.1,14.6,30.20,East,90,2.0,-999.0,52,0.00,,,0.00,Wunderground v.1.15,2013-01-12 16:46:00,
2013-01-12 09:41:00,33.3,18.0,30.20,ENE,76,2.0,2.0,53,0.00,,,0.00,Wunderground v.1.15,2013-01-12 17:41:00,
2013-01-12 09:50:00,33.4,16.3,30.20,East,101,3.0,3.0,49,0.00,,,0.00,Wunderground v.1.15,2013-01-12 17:50:00,
2013-01-12 10:00:00,34.1,15.9,30.20,East,89,3.0,4.0,47,0.00,,,0.00,Wunderground v.1.15,2013-01-12 18:00:00,
2013-01-12 10:10:00,34.6,14.9,30.20,ESE,110,3.0,3.0,44,0.00,,,0.00,Wunderground v.1.15,2013-01-12 18:10:00,
2013-01-12 10:20:00,35.2,16.5,30.20,East,94,2.0,2.0,46,0.00,,,0.00,Wunderground v.1.15,2013-01-12 18:20:00,
2013-01-12 10:30:00,36.0,16.2,30.20,East,82,1.0,2.0,44,0.00,,,0.00,Wunderground v.1.15,2013-01-12 18:30:00,
2013-01-12 10:40:00,36.7,16.8,30.20,East,84,2.0,2.0,44,0.00,,,0.00,Wunderground v.1.15,2013-01-12 18:40:00,
2013-01-12 10:50:00,37.2,15.1,30.20,ESE,110,1.0,1.0,40,0.00,,,0.00,Wunderground v.1.15,2013-01-12 18:50:00,
2013-01-12 11:00:00,37.6,16.0,30.20,East,94,1.0,6.0,41,0.00,,,0.00,Wunderground v.1.15,2013-01-12 19:00:00,
2013-01-12 11:10:00,38.2,14.2,30.19,SE,125,1.0,6.0,37,0.00,,,0.00,Wunderground v.1.15,2013-01-12 19:10:00,
2013-01-12 11:20:00,38.7,14.0,30.19,WSW,241,1.0,1.0,36,0.00,,,0.00,Wunderground v.1.15,2013-01-12 19:20:00,
2013-01-12 11:30:00,38.4,12.4,30.18,ESE,111,2.0,6.0,34,0.00,,,0.00,Wunderground v.1.15,2013-01-12 19:30:00,
2013-01-12 11:40:00,38.5,15.7,30.18,South,174,1.0,6.0,39,0.00,,,0.00,Wunderground v.1.15,2013-01-12 19:40:00,
2013-01-12 11:45:00,38.5,15.1,30.17,SW,235,1.0,6.0,38,0.00,,,0.00,Wunderground v.1.15,2013-01-12 19:45:00,
2013-01-12 11:55:00,38.7,14.6,30.17,WSW,256,0.0,6.0,37,0.00,,,0.00,Wunderground v.1.15,2013-01-12 19:55:00,
2013-01-12 12:05:00,39.2,12.5,30.17,West,262,1.0,1.0,33,0.00,,,0.00,Wunderground v.1.15,2013-01-12 20:05:00,
2013-01-12 12:10:00,39.1,15.6,30.16,West,269,1.0,1.0,38,0.00,,,0.00,Wunderground v.1.15,2013-01-12 20:10:00,
2013-01-12 12:20:00,39.4,16.5,30.16,WNW,298,1.0,2.0,39,0.00,,,0.00,Wunderground v.1.15,2013-01-12 20:20:00,
2013-01-12 12:30:00,39.7,17.9,30.15,SSE,157,0.0,1.0,41,0.00,,,0.00,Wunderground v.1.15,2013-01-12 20:30:00,
2013-01-12 12:40:00,40.3,18.4,30.15,SSE,159,0.0,2.0,41,0.00,,,0.00,Wunderground v.1.15,2013-01-12 20:40:00,
2013-01-12 12:50:00,40.4,18.0,30.15,West,274,1.0,2.0,40,0.00,,,0.00,Wunderground v.1.15,2013-01-12 20:50:00,
2013-01-12 13:00:00,40.5,19.2,30.15,WSW,252,1.0,1.0,42,0.00,,,0.00,Wunderground v.1.15,2013-01-12 21:00:00,
2013-01-12 13:10:00,40.2,22.5,30.14,WSW,246,1.0,4.0,49,0.00,,,0.00,Wunderground v.1.15,2013-01-12 21:10:00,
2013-01-12 13:15:00,40.2,20.0,30.14,South,179,1.0,4.0,44,0.00,,,0.00,Wunderground v.1.15,2013-01-12 21:15:00,
2013-01-12 13:25:00,39.8,21.2,30.14,SSW,198,1.0,4.0,47,0.00,,,0.00,Wunderground v.1.15,2013-01-12 21:25:00,
2013-01-12 13:35:00,40.1,22.9,30.14,SW,228,1.0,4.0,50,0.00,,,0.00,Wunderground v.1.15,2013-01-12 21:35:00,
2013-01-12 13:45:00,40.0,23.8,30.14,WNW,302,1.0,4.0,52,0.00,,,0.00,Wunderground v.1.15,2013-01-12 21:45:00,
2013-01-12 13:55:00,39.7,23.5,30.14,South,186,1.0,4.0,52,0.00,,,0.00,Wunderground v.1.15,2013-01-12 21:55:00,
2013-01-12 14:05:00,39.6,22.5,30.14,SW,222,1.0,4.0,50,0.00,,,0.00,Wunderground v.1.15,2013-01-12 22:05:00,
2013-01-12 14:10:00,39.5,24.7,30.14,WSW,243,1.0,1.0,55,0.00,,,0.00,Wunderground v.1.15,2013-01-12 22:10:00,
2013-01-12 14:20:00,39.8,24.0,30.14,WSW,246,1.0,1.0,53,0.00,,,0.00,Wunderground v.1.15,2013-01-12 22:20:00,
2013-01-12 14:25:00,39.6,24.3,30.14,SSW,198,1.0,4.0,54,0.00,,,0.00,Wunderground v.1.15,2013-01-12 22:25:00,
2013-01-12 14:35:00,39.3,24.0,30.14,WSW,253,1.0,4.0,54,0.00,,,0.00,Wunderground v.1.15,2013-01-12 22:35:00,
2013-01-12 14:45:00,39.3,23.6,30.14,WSW,250,1.0,4.0,53,0.00,,,0.00,Wunderground v.1.15,2013-01-12 22:45:00,
2013-01-12 14:55:00,39.5,24.2,30.14,NW,307,1.0,4.0,54,0.00,,,0.00,Wunderground v.1.15,2013-01-12 22:55:00,
2013-01-12 15:05:00,39.2,23.5,30.14,South,172,1.0,4.0,53,0.00,,,0.00,Wunderground v.1.15,2013-01-12 23:05:00,
2013-01-12 15:15:00,38.9,23.7,30.14,SSE,166,1.0,2.0,54,0.00,,,0.00,Wunderground v.1.15,2013-01-12 23:15:00,
2013-01-12 15:20:00,39.1,22.9,30.14,SSW,212,1.0,1.0,52,0.00,,,0.00,Wunderground v.1.15,2013-01-12 23:20:00,
2013-01-12 15:30:00,39.0,22.8,30.14,SSW,208,0.0,4.0,52,0.00,,,0.00,Wunderground v.1.15,2013-01-12 23:30:00,
2013-01-12 15:40:00,38.5,21.9,30.14,SW,232,1.0,1.0,51,0.00,,,0.00,Wunderground v.1.15,2013-01-12 23:40:00,
2013-01-12 15:50:00,38.2,22.1,30.14,SSW,193,0.0,4.0,52,0.00,,,0.00,Wunderground v.1.15,2013-01-12 23:50:00,
2013-01-12 16:05:00,38.0,22.4,30.13,SSW,201,0.0,0.0,53,0.00,,,0.00,Wunderground v.1.15,2013-01-13 00:05:00,
2013-01-12 16:15:00,37.7,21.6,30.13,SW,214,0.0,0.0,52,0.00,,,0.00,Wunderground v.1.15,2013-01-13 00:15:00,
2013-01-12 16:25:00,37.5,21.5,30.13,SW,214,0.0,0.0,52,0.00,,,0.00,Wunderground v.1.15,2013-01-13 00:25:00,
2013-01-12 16:35:00,37.1,21.5,30.14,SW,224,0.0,0.0,53,0.00,,,0.00,Wunderground v.1.15,2013-01-13 00:35:00,
2013-01-12 16:45:00,36.7,21.6,30.14,SW,224,0.0,0.0,54,0.00,,,0.00,Wunderground v.1.15,2013-01-13 00:45:00,
2013-01-12 16:55:00,36.2,21.6,30.15,SW,228,0.0,0.0,55,0.00,,,0.00,Wunderground v.1.15,2013-01-13 00:55:00,
2013-01-12 17:05:00,35.8,21.6,30.15,WSW,239,0.0,3.0,56,0.00,,,0.00,Wunderground v.1.15,2013-01-13 01:05:00,
2013-01-12 17:15:00,35.3,21.6,30.15,WSW,257,0.0,3.0,57,0.00,,,0.00,Wunderground v.1.15,2013-01-13 01:15:00,
2013-01-12 17:25:00,35.1,21.8,30.15,WSW,249,0.0,3.0,58,0.00,,,0.00,Wunderground v.1.15,2013-01-13 01:25:00,
2013-01-12 17:35:00,34.8,21.5,30.15,WSW,249,0.0,3.0,58,0.00,,,0.00,Wunderground v.1.15,2013-01-13 01:35:00,
2013-01-12 17:45:00,34.2,21.7,30.15,WSW,249,0.0,3.0,60,0.00,,,0.00,Wunderground v.1.15,2013-01-13 01:45:00,
2013-01-12 17:55:00,33.9,21.5,30.15,WSW,248,0.0,3.0,60,0.00,,,0.00,Wunderground v.1.15,2013-01-13 01:55:00,
2013-01-12 18:00:00,33.7,21.3,30.16,WSW,249,0.0,3.0,60,0.00,,,0.00,Wunderground v.1.15,2013-01-13 02:00:00,
2013-01-12 18:10:00,33.4,21.4,30.15,WSW,249,0.0,3.0,61,0.00,,,0.00,Wunderground v.1.15,2013-01-13 02:10:00,
2013-01-12 18:20:00,33.3,21.3,30.15,WSW,249,0.0,3.0,61,0.00,,,0.00,Wunderground v.1.15,2013-01-13 02:20:00,
2013-01-12 18:30:00,33.3,21.3,30.15,WSW,249,0.0,3.0,61,0.00,,,0.00,Wunderground v.1.15,2013-01-13 02:30:00,
2013-01-12 18:40:00,32.9,21.3,30.16,WSW,249,0.0,3.0,62,0.00,,,0.00,Wunderground v.1.15,2013-01-13 02:40:00,
2013-01-12 18:50:00,32.7,21.1,30.16,WSW,249,0.0,3.0,62,0.00,,,0.00,Wunderground v.1.15,2013-01-13 02:50:00,
2013-01-12 19:00:00,32.6,22.1,30.15,WSW,249,0.0,3.0,65,0.00,,,0.00,Wunderground v.1.15,2013-01-13 03:00:00,
2013-01-12 19:10:00,32.7,22.6,30.16,WSW,249,0.0,3.0,66,0.00,,,0.00,Wunderground v.1.15,2013-01-13 03:10:00,
2013-01-12 19:20:00,32.9,22.4,30.16,WSW,249,0.0,3.0,65,0.00,,,0.00,Wunderground v.1.15,2013-01-13 03:20:00,
2013-01-12 19:30:00,32.9,22.0,30.16,WSW,249,0.0,3.0,64,0.00,,,0.00,Wunderground v.1.15,2013-01-13 03:30:00,
2013-01-12 19:38:00,32.9,22.0,30.16,WSW,248,0.0,-999.0,64,0.00,,,0.00,Wunderground v.1.15,2013-01-13 03:38:00,
2013-01-12 19:40:00,32.2,22.5,30.16,WSW,249,0.0,3.0,67,0.00,,,0.00,Wunderground v.1.15,2013-01-13 03:40:00,
2013-01-12 19:43:00,32.9,22.0,30.16,WSW,248,0.0,-999.0,64,0.00,,,0.00,Wunderground v.1.15,2013-01-13 03:43:00,
2013-01-12 19:48:00,32.1,22.7,30.15,N/A,-737280,0.0,-999.0,68,0.00,,,0.00,Wunderground v.1.15,2013-01-13 03:48:00,
2013-01-12 19:50:00,31.8,22.4,30.16,WSW,249,0.0,3.0,68,0.00,,,0.00,Wunderground v.1.15,2013-01-13 03:50:00,
2013-01-12 19:53:00,32.1,22.7,30.15,N/A,-737280,0.0,-999.0,68,0.00,,,0.00,Wunderground v.1.15,2013-01-13 03:53:00,
2013-01-12 19:58:00,32.1,22.7,30.15,N/A,-737280,0.0,-999.0,68,0.00,,,0.00,Wunderground v.1.15,2013-01-13 03:58:00,
2013-01-12 20:00:00,32.1,22.7,30.15,WSW,249,0.0,3.0,68,0.00,,,0.00,Wunderground v.1.15,2013-01-13 04:00:00,
2013-01-12 20:03:00,32.1,22.7,30.15,N/A,-737280,0.0,-999.0,68,0.00,,,0.00,Wunderground v.1.15,2013-01-13 04:03:00,
2013-01-12 20:08:00,32.1,22.7,30.15,N/A,-737280,0.0,-999.0,68,0.00,,,0.00,Wunderground v.1.15,2013-01-13 04:08:00,
2013-01-12 20:10:00,32.4,22.7,30.16,WSW,249,0.0,3.0,67,0.00,,,0.00,Wunderground v.1.15,2013-01-13 04:10:00,
2013-01-12 20:13:00,32.1,22.7,30.15,N/A,-737280,0.0,-999.0,68,0.00,,,0.00,Wunderground v.1.15,2013-01-13 04:13:00,
2013-01-12 20:18:00,32.4,23.0,30.16,N/A,-737280,0.0,-999.0,68,0.00,,,0.00,Wunderground v.1.15,2013-01-13 04:18:00,
2013-01-12 20:20:00,32.6,23.2,30.16,WSW,249,0.0,3.0,68,0.00,,,0.00,Wunderground v.1.15,2013-01-13 04:20:00,
2013-01-12 20:23:00,32.4,23.0,30.16,N/A,-737280,0.0,-999.0,68,0.00,,,0.00,Wunderground v.1.15,2013-01-13 04:23:00,
2013-01-12 20:28:00,32.4,23.0,30.16,N/A,-737280,0.0,-999.0,68,0.00,,,0.00,Wunderground v.1.15,2013-01-13 04:28:00,
2013-01-12 20:30:00,32.4,23.0,30.16,WSW,249,0.0,3.0,68,0.00,,,0.00,Wunderground v.1.15,2013-01-13 04:30:00,
2013-01-12 20:33:00,32.4,23.0,30.16,N/A,-737280,0.0,-999.0,68,0.00,,,0.00,Wunderground v.1.15,2013-01-13 04:33:00,
2013-01-12 20:38:00,32.4,23.0,30.16,N/A,-737280,0.0,-999.0,68,0.00,,,0.00,Wunderground v.1.15,2013-01-13 04:38:00,
2013-01-12 20:40:00,31.7,23.4,30.16,WSW,249,0.0,3.0,71,0.00,,,0.00,Wunderground v.1.15,2013-01-13 04:40:00,
2013-01-12 20:43:00,32.4,23.0,30.16,N/A,-737280,0.0,-999.0,68,0.00,,,0.00,Wunderground v.1.15,2013-01-13 04:43:00,
2013-01-12 20:48:00,31.8,23.5,30.16,N/A,-737280,0.0,-999.0,71,0.00,,,0.00,Wunderground v.1.15,2013-01-13 04:48:00,
2013-01-12 20:50:00,32.0,23.3,30.16,WSW,249,0.0,3.0,70,0.00,,,0.00,Wunderground v.1.15,2013-01-13 04:50:00,
2013-01-12 20:53:00,31.8,23.5,30.16,N/A,-737280,0.0,-999.0,71,0.00,,,0.00,Wunderground v.1.15,2013-01-13 04:53:00,
2013-01-12 20:58:00,31.8,23.5,30.16,N/A,-737280,0.0,-999.0,71,0.00,,,0.00,Wunderground v.1.15,2013-01-13 04:58:00,
2013-01-12 21:00:00,31.8,23.5,30.16,WSW,250,0.0,3.0,71,0.00,,,0.00,Wunderground v.1.15,2013-01-13 05:00:00,
2013-01-12 21:03:00,31.8,23.5,30.16,N/A,-737280,0.0,-999.0,71,0.00,,,0.00,Wunderground v.1.15,2013-01-13 05:03:00,
2013-01-12 21:05:00,31.7,23.4,30.16,WSW,249,0.0,3.0,71,0.00,,,0.00,Wunderground v.1.15,2013-01-13 05:05:00,
2013-01-12 21:08:00,31.8,23.5,30.16,N/A,-737280,0.0,-999.0,71,0.00,,,0.00,Wunderground v.1.15,2013-01-13 05:08:00,
2013-01-12 21:13:00,31.8,23.5,30.16,N/A,-737280,0.0,-999.0,71,0.00,,,0.00,Wunderground v.1.15,2013-01-13 05:13:00,
2013-01-12 21:18:00,30.8,23.5,30.16,NNE,23,0.0,-999.0,74,0.00,,,0.00,Wunderground v.1.15,2013-01-13 05:18:00,
2013-01-12 21:23:00,30.8,23.5,30.16,NNE,23,0.0,-999.0,74,0.00,,,0.00,Wunderground v.1.15,2013-01-13 05:23:00,
2013-01-12 21:28:00,30.8,23.5,30.16,NNE,23,0.0,-999.0,74,0.00,,,0.00,Wunderground v.1.15,2013-01-13 05:28:00,
2013-01-12 21:33:00,30.8,23.5,30.16,NNE,23,0.0,-999.0,74,0.00,,,0.00,Wunderground v.1.15,2013-01-13 05:33:00,
2013-01-12 21:38:00,30.8,23.5,30.16,NNE,23,0.0,-999.0,74,0.00,,,0.00,Wunderground v.1.15,2013-01-13 05:38:00,
2013-01-12 21:43:00,30.8,23.5,30.16,NNE,23,0.0,-999.0,74,0.00,,,0.00,Wunderground v.1.15,2013-01-13 05:43:00,
2013-01-12 21:48:00,30.7,23.4,30.16,ENE,68,0.0,-999.0,74,0.00,,,0.00,Wunderground v.1.15,2013-01-13 05:48:00,
2013-01-12 21:53:00,30.7,23.4,30.16,ENE,68,0.0,-999.0,74,0.00,,,0.00,Wunderground v.1.15,2013-01-13 05:53:00,
2013-01-12 21:58:00,30.7,23.4,30.16,ENE,68,0.0,-999.0,74,0.00,,,0.00,Wunderground v.1.15,2013-01-13 05:58:00,
2013-01-12 22:03:00,30.7,23.4,30.16,ENE,68,0.0,-999.0,74,0.00,,,0.00,Wunderground v.1.15,2013-01-13 06:03:00,
2013-01-12 22:08:00,30.7,23.4,30.16,ENE,68,0.0,-999.0,74,0.00,,,0.00,Wunderground v.1.15,2013-01-13 06:08:00,
2013-01-12 22:13:00,30.7,23.4,30.16,ENE,68,0.0,-999.0,74,0.00,,,0.00,Wunderground v.1.15,2013-01-13 06:13:00,
2013-01-12 22:18:00,30.4,23.4,30.17,ENE,68,0.0,-999.0,75,0.00,,,0.00,Wunderground v.1.15,2013-01-13 06:18:00,
2013-01-12 22:23:00,30.4,23.4,30.17,ENE,68,0.0,-999.0,75,0.00,,,0.00,Wunderground v.1.15,2013-01-13 06:23:00,
2013-01-12 22:28:00,30.4,23.4,30.17,ENE,68,0.0,-999.0,75,0.00,,,0.00,Wunderground v.1.15,2013-01-13 06:28:00,
2013-01-12 22:33:00,30.4,23.4,30.17,ENE,68,0.0,-999.0,75,0.00,,,0.00,Wunderground v.1.15,2013-01-13 06:33:00,
2013-01-12 22:38:00,30.4,23.4,30.17,ENE,68,0.0,-999.0,75,0.00,,,0.00,Wunderground v.1.15,2013-01-13 06:38:00,
2013-01-12 22:43:00,30.4,23.4,30.17,ENE,68,0.0,-999.0,75,0.00,,,0.00,Wunderground v.1.15,2013-01-13 06:43:00,
2013-01-12 22:48:00,29.9,22.9,30.18,East,90,0.0,-999.0,75,0.00,,,0.00,Wunderground v.1.15,2013-01-13 06:48:00,
2013-01-12 22:53:00,29.9,22.9,30.18,East,90,0.0,-999.0,75,0.00,,,0.00,Wunderground v.1.15,2013-01-13 06:53:00,
2013-01-12 22:58:00,29.9,22.9,30.18,East,90,0.0,-999.0,75,0.00,,,0.00,Wunderground v.1.15,2013-01-13 06:58:00,
2013-01-12 23:03:00,29.9,22.9,30.18,East,90,0.0,-999.0,75,0.00,,,0.00,Wunderground v.1.15,2013-01-13 07:03:00,
2013-01-12 23:08:00,29.9,22.9,30.18,East,90,0.0,-999.0,75,0.00,,,0.00,Wunderground v.1.15,2013-01-13 07:08:00,
2013-01-12 23:13:00,29.9,22.9,30.18,East,90,0.0,-999.0,75,0.00,,,0.00,Wunderground v.1.15,2013-01-13 07:13:00,
2013-01-12 23:18:00,29.6,21.3,30.18,NE,45,0.0,-999.0,71,0.00,,,0.00,Wunderground v.1.15,2013-01-13 07:18:00,
2013-01-12 23:23:00,29.6,21.3,30.18,NE,45,0.0,-999.0,71,0.00,,,0.00,Wunderground v.1.15,2013-01-13 07:23:00,
2013-01-12 23:28:00,29.6,21.3,30.18,NE,45,0.0,-999.0,71,0.00,,,0.00,Wunderground v.1.15,2013-01-13 07:28:00,
2013-01-12 23:33:00,29.6,21.3,30.18,NE,45,0.0,-999.0,71,0.00,,,0.00,Wunderground v.1.15,2013-01-13 07:33:00,
2013-01-12 23:38:00,29.6,21.3,30.18,NE,45,0.0,-999.0,71,0.00,,,0.00,Wunderground v.1.15,2013-01-13 07:38:00,
2013-01-12 23:43:00,29.6,21.3,30.18,NE,45,0.0,-999.0,71,0.00,,,0.00,Wunderground v.1.15,2013-01-13 07:43:00,
2013-01-12 23:48:00,28.4,21.2,30.17,East,90,1.0,-999.0,74,0.00,,,0.00,Wunderground v.1.15,2013-01-13 07:48:00,
2013-01-12 23:53:00,28.4,21.2,30.17,East,90,1.0,-999.0,74,0.00,,,0.00,Wunderground v.1.15,2013-01-13 07:53:00,
2013-01-12 23:58:00,28.4,21.2,30.17,East,90,1.0,-999.0,74,0.00,,,0.00,Wunderground v.1.15,2013-01-13 07:58:00,